East Williston, NY

8:42 AM EDT on April 19, 2015 (GMT -0400)
WILLISTON PARK | | Change Station
CLOSE
Current Station
Personal Weather Station
Location: Williston Park, NY
Elevation: 131 ft
Nearby Weather Stations

Elev 131 ft 40.76 °N, 73.64 °W | Updated 9 minutes ago

Partly Cloudy
Partly Cloudy
54.6 °F
Feels Like 54.6 °F
N
3.0
Wind Variable Wind from ENE
Gusts 9.0 mph

Today
High -- | Low -- °F
--% Chance of Precip.
Yesterday
High -- | Low -- °F
Precip. -- in
6:10 AM 7:37 PM
New Moon, 1% visible
Pressure 30.25 in
Visibility 10.0 miles
Clouds Mostly Cloudy 25000 ft
Dew Point 33 °F
Humidity 44%
Rainfall 0.00 in
Snow Depth Not available.
UV 1 out of 12
Pollen 9.30 out of 12
Air Quality Not available.
Flu Activity Widespread
METAR KJFK 191151Z 10005KT 10SM BKN250 12/04 A3025 RMK AO2 SLP242 T01170039 10156 20089 53027

More Conditions Fewer Conditions

Pressure 30.25 in
Visibility 10.0 miles
Clouds Mostly Cloudy 25000 ft
Dew Point 33 °F
Humidity 44%
Rainfall 0.00 in
Snow Depth Not available.
UV 1 out of 12
Pollen 9.30 out of 12
Air Quality Not available.
Flu Activity Widespread
METAR KJFK 191151Z 10005KT 10SM BKN250 12/04 A3025 RMK AO2 SLP242 T01170039 10156 20089 53027

More Conditions Fewer Conditions

10-Day Weather Forecast

Almanac

Astronomy

Apr. 19, 2015 Rise Set
Actual Time
Civil Twilight
Nautical Twilight
Astronomical Twilight
Moon
Length of Visible Light
Length of Day
Tomorrow will be .
, % of the Moon is Illuminated

Today's Extremes

State Highs State Lows

Community

WunderPhotos

Upload Photos

1,814,775 photos uploaded!

WunderBlogs® & News

Nearby

Air Quality

  Air Quality AQ Index Pollutant
Not available.

Snow Depth

Station Depth Elevation

Earthquake Activity

City Distance Mag. Time & Date
Minimum magnitude displayed is 2.5.

Coastal Water Temperatures

Place Temperature

Stations

Nearby Weather Stations

Station Location Temp. Windchill Dew Point Humidity Wind Precip. Elev Updated Type